Noordam — PHET — position and weather

sailwx.info

Track history (hours):
 
Tides and Currents Weather Stations Pressure Air Temp Water Temp Dewpoint Dewpoint Depression Visibility Wind Speed Wind Dir Waves Ship Positions

Noordam (Netherlands)

Ship's website: http://www.hollandamerica.com/cruiseships/Noordam

Last reported at 2015-May-21 01:31 UTC. Time now 2015-May-22 14:38 UTC.
Position N 58°17' W 136°16'.

Type: Passenger vessel. MMSI: 246028000.

Date/timePositionNaut miles runAvg speedWind from/ knotsBaromVisibWave heightAir tempDewpointWater temp
2015-May-21 01:31N 58°17' W 136°16'1212.8
2015-May-21 00:33N 58°27' W 136°01'1515.1
2015-May-20 23:33N 58°41' W 136°11'1616.5
2015-May-20 22:33N 58°51' W 136°36'2 0.4
2015-May-20 17:07N 58°51' W 136°32'916.3
2015-May-20 16:33N 58°45' W 136°18'1515.2
2015-May-20 15:33N 58°32' W 136°03'1010.3
2015-May-20 14:33N 58°22' W 135°58'1111.4
2015-May-20 13:33N 58°17' W 135°39'1312.7
2015-May-20 12:33N 58°12' W 135°16'141 2.9
2015-May-18 12:00N 55°54' W 134°24'39516.2 300 / 241021.0 0.3 8.5 8.223.2
2015-May-17 11:33N 50°49' W 127°24'1717.5
2015-May-17 10:33N 50°42' W 126°58'1514.8
2015-May-17 09:33N 50°32' W 126°41'2119.4
2015-May-17 08:29N 50°28' W 126°09'5915.1
2015-May-17 04:33N 49°51' W 124°57'2019.8
2015-May-17 03:33N 49°37' W 124°36'2019.7
2015-May-17 02:33N 49°24' W 124°13'2020.4
2015-May-17 01:33N 49°22' W 123°42'2020.0
2015-May-17 00:33N 49°19' W 123°11'4 3.5
2015-May-16 23:32N 49°17' W 123°07'0 0.0
2015-May-16 22:32N 49°17' W 123°07'0 0.0
2015-May-16 21:32N 49°17' W 123°07'0 0.0
2015-May-16 20:32N 49°17' W 123°07'0 0.0
2015-May-16 19:32N 49°17' W 123°07'0 0.0
2015-May-16 18:32N 49°17' W 123°07'0 0.0
2015-May-16 17:32N 49°17' W 123°07'0 0.0
2015-May-16 16:32N 49°17' W 123°07'0 0.0
2015-May-16 15:32N 49°17' W 123°07'0 0.0
2015-May-16 14:32N 49°17' W 123°07'1 0.8
2015-May-16 13:34N 49°18' W 123°07'10 9.9
2015-May-16 12:33N 49°18' W 123°22'1312.8
2015-May-16 11:33N 49°19' W 123°41'1212.2
2015-May-16 10:33N 49°21' W 124°00'5 8.3
2015-May-16 10:00N 49°18' W 124°06'1124.1 300 / 121013.010.8 14.911.721.8
2015-May-16 09:33N 49°25' W 124°18'1413.1
2015-May-16 08:29N 49°34' W 124°35'1213.2
2015-May-16 07:33N 49°43' W 124°47'7111.3
2015-May-16 01:13N 50°29' W 126°13'913.5
2015-May-16 00:33N 50°30' W 126°27'1211.9
2015-May-15 23:33N 50°36' W 126°43'1616.1
2015-May-15 22:34N 50°44' W 127°05'1616.1
2015-May-15 21:33N 50°50' W 127°28'1515.4
2015-May-15 20:33N 50°59' W 127°48'1413.9
2015-May-15 19:31N 51°07' W 128°07'1515.7
2015-May-15 18:33N 51°18' W 128°25'4016.3
2015-May-15 16:06N 51°49' W 129°05'46011.9
2015-May-14 01:33N 58°19' W 136°09'9 9.3
2015-May-14 00:34N 58°28' W 136°02'1615.8
2015-May-13 23:33N 58°42' W 136°14'1716.6
2015-May-13 22:33N 58°52' W 136°39'13 2.1
2015-May-13 16:23N 58°45' W 136°18'1315.8
2015-May-13 15:33N 58°34' W 136°04'131231.1
2015-May-13 15:00N 56°24' W 135°54'117266.6 040 / 31012.010.8 8.8 5.421.0
2015-May-13 14:33N 58°21' W 135°57'915.2
2015-May-13 14:00N 58°18' W 135°42'3 6.7 230 / 261011.010.8 8.3 4.521.4
2015-May-13 13:33N 58°17' W 135°37'1412.3
2015-May-13 12:26N 58°12' W 135°13'919.8
2015-May-13 12:00N 58°06' W 135°00'19 0.7 260 / 201011.010.8 9.8 5.421.3
2015-May-12 09:00N 58°24' W 134°48'169 8.0 340 / 101015.010.8 9.5 5.512.4
2015-May-11 12:00N 55°36' W 134°18'8621.5 180 / 21021.010.8 7.7 4.522.2
2015-May-11 08:00N 54°30' W 132°42'   300 / 231022.010.8 8.5 5.222.3
Track history (hours):
 
Tides and Currents Weather Stations Pressure Air Temp Water Temp Dewpoint Dewpoint Depression Visibility Wind Speed Wind Dir Waves Ship Positions

Noordam (Netherlands)

Ship's website: http://www.hollandamerica.com/cruiseships/Noordam

Last reported at 2015-May-21 01:31 UTC. Time now 2015-May-22 14:38 UTC.
Position N 58°17' W 136°16'.

Type: Passenger vessel. MMSI: 246028000.

Date/timePositionNaut miles runAvg speedWind from/ knotsBaromVisibWave heightAir tempDewpointWater temp
2015-May-21 01:31N 58°17' W 136°16'1212.8
2015-May-21 00:33N 58°27' W 136°01'1515.1
2015-May-20 23:33N 58°41' W 136°11'1616.5
2015-May-20 22:33N 58°51' W 136°36'2 0.4
2015-May-20 17:07N 58°51' W 136°32'916.3
2015-May-20 16:33N 58°45' W 136°18'1515.2
2015-May-20 15:33N 58°32' W 136°03'1010.3
2015-May-20 14:33N 58°22' W 135°58'1111.4
2015-May-20 13:33N 58°17' W 135°39'1312.7
2015-May-20 12:33N 58°12' W 135°16'141 2.9
2015-May-18 12:00N 55°54' W 134°24'39516.2 300 / 241021.0 0.3 8.5 8.223.2
2015-May-17 11:33N 50°49' W 127°24'1717.5
2015-May-17 10:33N 50°42' W 126°58'1514.8
2015-May-17 09:33N 50°32' W 126°41'2119.4
2015-May-17 08:29N 50°28' W 126°09'5915.1
2015-May-17 04:33N 49°51' W 124°57'2019.8
2015-May-17 03:33N 49°37' W 124°36'2019.7
2015-May-17 02:33N 49°24' W 124°13'2020.4
2015-May-17 01:33N 49°22' W 123°42'2020.0
2015-May-17 00:33N 49°19' W 123°11'4 3.5
2015-May-16 23:32N 49°17' W 123°07'0 0.0
2015-May-16 22:32N 49°17' W 123°07'0 0.0
2015-May-16 21:32N 49°17' W 123°07'0 0.0
2015-May-16 20:32N 49°17' W 123°07'0 0.0
2015-May-16 19:32N 49°17' W 123°07'0 0.0
2015-May-16 18:32N 49°17' W 123°07'0 0.0
2015-May-16 17:32N 49°17' W 123°07'0 0.0
2015-May-16 16:32N 49°17' W 123°07'0 0.0
2015-May-16 15:32N 49°17' W 123°07'0 0.0
2015-May-16 14:32N 49°17' W 123°07'1 0.8
2015-May-16 13:34N 49°18' W 123°07'10 9.9
2015-May-16 12:33N 49°18' W 123°22'1312.8
2015-May-16 11:33N 49°19' W 123°41'1212.2
2015-May-16 10:33N 49°21' W 124°00'5 8.3
2015-May-16 10:00N 49°18' W 124°06'1124.1 300 / 121013.010.8 14.911.721.8
2015-May-16 09:33N 49°25' W 124°18'1413.1
2015-May-16 08:29N 49°34' W 124°35'1213.2
2015-May-16 07:33N 49°43' W 124°47'7111.3
2015-May-16 01:13N 50°29' W 126°13'913.5
2015-May-16 00:33N 50°30' W 126°27'1211.9
2015-May-15 23:33N 50°36' W 126°43'1616.1
2015-May-15 22:34N 50°44' W 127°05'1616.1
2015-May-15 21:33N 50°50' W 127°28'1515.4
2015-May-15 20:33N 50°59' W 127°48'1413.9
2015-May-15 19:31N 51°07' W 128°07'1515.7
2015-May-15 18:33N 51°18' W 128°25'4016.3
2015-May-15 16:06N 51°49' W 129°05'46011.9
2015-May-14 01:33N 58°19' W 136°09'9 9.3
2015-May-14 00:34N 58°28' W 136°02'1615.8
2015-May-13 23:33N 58°42' W 136°14'1716.6
2015-May-13 22:33N 58°52' W 136°39'13 2.1
2015-May-13 16:23N 58°45' W 136°18'1315.8
2015-May-13 15:33N 58°34' W 136°04'131231.1
2015-May-13 15:00N 56°24' W 135°54'117266.6 040 / 31012.010.8 8.8 5.421.0
2015-May-13 14:33N 58°21' W 135°57'915.2
2015-May-13 14:00N 58°18' W 135°42'3 6.7 230 / 261011.010.8 8.3 4.521.4
2015-May-13 13:33N 58°17' W 135°37'1412.3
2015-May-13 12:26N 58°12' W 135°13'919.8
2015-May-13 12:00N 58°06' W 135°00'19 0.7 260 / 201011.010.8 9.8 5.421.3
2015-May-12 09:00N 58°24' W 134°48'169 8.0 340 / 101015.010.8 9.5 5.512.4
2015-May-11 12:00N 55°36' W 134°18'8621.5 180 / 21021.010.8 7.7 4.522.2
2015-May-11 08:00N 54°30' W 132°42'   300 / 231022.010.8 8.5 5.222.3

Dump ship's entire track history